sensor_id;sensor_type;location;lat;lon;timestamp;P1;durP1;ratioP1;P2;durP2;ratioP2
70049;SDS011;57391;51.306;22.680;2023-02-03T00:11:25;6.20;;;2.30;;
70049;SDS011;57391;51.306;22.680;2023-02-03T00:28:00;5.10;;;1.90;;
70049;SDS011;57391;51.306;22.680;2023-02-03T00:30:28;6.50;;;2.00;;
70049;SDS011;57391;51.306;22.680;2023-02-03T00:32:55;5.80;;;2.40;;
70049;SDS011;57391;51.306;22.680;2023-02-03T00:35:23;9.30;;;2.40;;
70049;SDS011;57391;51.306;22.680;2023-02-03T00:37:52;5.70;;;1.90;;
70049;SDS011;57391;51.306;22.680;2023-02-03T00:40:23;6.40;;;2.00;;
70049;SDS011;57391;51.306;22.680;2023-02-03T00:42:51;4.70;;;2.40;;
70049;SDS011;57391;51.306;22.680;2023-02-03T00:45:20;6.10;;;2.60;;
70049;SDS011;57391;51.306;22.680;2023-02-03T00:47:47;5.60;;;2.20;;
70049;SDS011;57391;51.306;22.680;2023-02-03T00:50:14;7.30;;;2.70;;
70049;SDS011;57391;51.306;22.680;2023-02-03T00:52:42;7.30;;;2.50;;
70049;SDS011;57391;51.306;22.680;2023-02-03T00:55:09;5.30;;;2.40;;
70049;SDS011;57391;51.306;22.680;2023-02-03T00:57:36;4.70;;;1.90;;
70049;SDS011;57391;51.306;22.680;2023-02-03T01:00:05;6.10;;;2.70;;
70049;SDS011;57391;51.306;22.680;2023-02-03T01:02:35;5.30;;;2.10;;
70049;SDS011;57391;51.306;22.680;2023-02-03T01:05:02;7.70;;;2.70;;
70049;SDS011;57391;51.306;22.680;2023-02-03T01:07:31;6.20;;;2.40;;
70049;SDS011;57391;51.306;22.680;2023-02-03T01:09:58;5.90;;;2.40;;
70049;SDS011;57391;51.306;22.680;2023-02-03T01:12:28;7.70;;;2.40;;
70049;SDS011;57391;51.306;22.680;2023-02-03T01:14:56;6.70;;;3.10;;
70049;SDS011;57391;51.306;22.680;2023-02-03T01:17:23;6.00;;;3.00;;
70049;SDS011;57391;51.306;22.680;2023-02-03T01:19:51;7.90;;;3.60;;
70049;SDS011;57391;51.306;22.680;2023-02-03T01:22:19;6.50;;;2.90;;
70049;SDS011;57391;51.306;22.680;2023-02-03T01:24:46;6.30;;;3.00;;
70049;SDS011;57391;51.306;22.680;2023-02-03T01:27:13;6.30;;;2.50;;
70049;SDS011;57391;51.306;22.680;2023-02-03T01:29:40;6.90;;;3.30;;
70049;SDS011;57391;51.306;22.680;2023-02-03T01:32:07;7.90;;;2.90;;
70049;SDS011;57391;51.306;22.680;2023-02-03T01:34:35;6.90;;;2.90;;
70049;SDS011;57391;51.306;22.680;2023-02-03T01:37:02;6.30;;;2.90;;
70049;SDS011;57391;51.306;22.680;2023-02-03T01:39:29;7.10;;;3.10;;
70049;SDS011;57391;51.306;22.680;2023-02-03T01:41:56;6.70;;;3.20;;
70049;SDS011;57391;51.306;22.680;2023-02-03T01:50:33;6.70;;;3.20;;
70049;SDS011;57391;51.306;22.680;2023-02-03T01:53:07;8.60;;;3.10;;
70049;SDS011;57391;51.306;22.680;2023-02-03T01:55:42;7.40;;;3.40;;
70049;SDS011;57391;51.306;22.680;2023-02-03T01:58:20;7.90;;;3.30;;
70049;SDS011;57391;51.306;22.680;2023-02-03T02:00:51;8.60;;;3.40;;
70049;SDS011;57391;51.306;22.680;2023-02-03T02:03:25;9.90;;;3.50;;
70049;SDS011;57391;51.306;22.680;2023-02-03T02:06:03;7.30;;;3.70;;
70049;SDS011;57391;51.306;22.680;2023-02-03T02:08:36;7.90;;;3.10;;
70049;SDS011;57391;51.306;22.680;2023-02-03T02:11:06;7.90;;;3.10;;
70049;SDS011;57391;51.306;22.680;2023-02-03T02:13:34;8.00;;;3.20;;
70049;SDS011;57391;51.306;22.680;2023-02-03T02:16:15;8.30;;;3.20;;
70049;SDS011;57391;51.306;22.680;2023-02-03T02:33:58;7.90;;;3.10;;
70049;SDS011;57391;51.306;22.680;2023-02-03T02:39:37;6.30;;;2.90;;
70049;SDS011;57391;51.306;22.680;2023-02-03T02:42:20;7.60;;;3.20;;
70049;SDS011;57391;51.306;22.680;2023-02-03T02:47:42;6.70;;;2.90;;
70049;SDS011;57391;51.306;22.680;2023-02-03T02:50:20;7.00;;;3.00;;
70049;SDS011;57391;51.306;22.680;2023-02-03T02:52:51;9.50;;;3.00;;
70049;SDS011;57391;51.306;22.680;2023-02-03T02:55:23;8.00;;;2.50;;
70049;SDS011;57391;51.306;22.680;2023-02-03T02:57:57;6.20;;;2.80;;
70049;SDS011;57391;51.306;22.680;2023-02-03T03:00:30;7.30;;;2.80;;
70049;SDS011;57391;51.306;22.680;2023-02-03T03:03:19;7.80;;;2.80;;
70049;SDS011;57391;51.306;22.680;2023-02-03T03:06:07;6.40;;;2.80;;
70049;SDS011;57391;51.306;22.680;2023-02-03T03:08:55;5.20;;;2.50;;
70049;SDS011;57391;51.306;22.680;2023-02-03T03:11:32;7.60;;;2.70;;
70049;SDS011;57391;51.306;22.680;2023-02-03T03:14:05;5.10;;;2.40;;
70049;SDS011;57391;51.306;22.680;2023-02-03T03:16:37;7.70;;;2.90;;
70049;SDS011;57391;51.306;22.680;2023-02-03T03:19:18;5.30;;;2.50;;
70049;SDS011;57391;51.306;22.680;2023-02-03T03:21:55;6.70;;;3.10;;
70049;SDS011;57391;51.306;22.680;2023-02-03T03:24:31;5.80;;;2.70;;
70049;SDS011;57391;51.306;22.680;2023-02-03T03:27:09;7.50;;;2.80;;
70049;SDS011;57391;51.306;22.680;2023-02-03T03:29:53;8.30;;;2.90;;
70049;SDS011;57391;51.306;22.680;2023-02-03T03:32:28;6.10;;;3.00;;
70049;SDS011;57391;51.306;22.680;2023-02-03T03:34:59;6.70;;;3.10;;
70049;SDS011;57391;51.306;22.680;2023-02-03T03:37:34;6.60;;;3.30;;
70049;SDS011;57391;51.306;22.680;2023-02-03T03:40:09;6.80;;;3.10;;
70049;SDS011;57391;51.306;22.680;2023-02-03T03:42:44;6.50;;;2.60;;
70049;SDS011;57391;51.306;22.680;2023-02-03T03:48:07;7.80;;;3.10;;
70049;SDS011;57391;51.306;22.680;2023-02-03T03:50:43;6.60;;;2.70;;
70049;SDS011;57391;51.306;22.680;2023-02-03T03:53:15;5.70;;;2.80;;
70049;SDS011;57391;51.306;22.680;2023-02-03T03:55:48;5.90;;;2.60;;
70049;SDS011;57391;51.306;22.680;2023-02-03T03:58:24;6.30;;;2.90;;
70049;SDS011;57391;51.306;22.680;2023-02-03T04:00:58;7.00;;;2.90;;
70049;SDS011;57391;51.306;22.680;2023-02-03T04:03:40;6.30;;;2.90;;
70049;SDS011;57391;51.306;22.680;2023-02-03T04:06:10;6.30;;;3.20;;
70049;SDS011;57391;51.306;22.680;2023-02-03T04:08:37;6.50;;;2.80;;
70049;SDS011;57391;51.306;22.680;2023-02-03T04:11:05;6.40;;;2.90;;
70049;SDS011;57391;51.306;22.680;2023-02-03T04:13:32;7.20;;;3.10;;
70049;SDS011;57391;51.306;22.680;2023-02-03T04:15:59;7.40;;;3.00;;
70049;SDS011;57391;51.306;22.680;2023-02-03T04:18:26;7.60;;;3.00;;
70049;SDS011;57391;51.306;22.680;2023-02-03T04:20:54;6.50;;;3.30;;
70049;SDS011;57391;51.306;22.680;2023-02-03T04:23:21;7.80;;;3.40;;
70049;SDS011;57391;51.306;22.680;2023-02-03T04:25:48;6.50;;;3.00;;
70049;SDS011;57391;51.306;22.680;2023-02-03T04:28:15;8.20;;;3.80;;
70049;SDS011;57391;51.306;22.680;2023-02-03T04:30:42;6.70;;;3.20;;
70049;SDS011;57391;51.306;22.680;2023-02-03T04:33:09;9.00;;;3.30;;
70049;SDS011;57391;51.306;22.680;2023-02-03T04:35:36;6.30;;;3.00;;
70049;SDS011;57391;51.306;22.680;2023-02-03T04:38:03;7.30;;;3.20;;
70049;SDS011;57391;51.306;22.680;2023-02-03T04:40:30;6.40;;;2.90;;
70049;SDS011;57391;51.306;22.680;2023-02-03T04:42:57;6.20;;;2.90;;
70049;SDS011;57391;51.306;22.680;2023-02-03T04:45:24;7.40;;;3.10;;
70049;SDS011;57391;51.306;22.680;2023-02-03T04:47:51;7.70;;;3.20;;
70049;SDS011;57391;51.306;22.680;2023-02-03T04:50:19;6.50;;;3.30;;
70049;SDS011;57391;51.306;22.680;2023-02-03T04:52:47;5.60;;;2.80;;
70049;SDS011;57391;51.306;22.680;2023-02-03T04:55:14;6.10;;;2.90;;
70049;SDS011;57391;51.306;22.680;2023-02-03T04:57:41;5.30;;;3.10;;
70049;SDS011;57391;51.306;22.680;2023-02-03T05:00:08;6.30;;;2.90;;
70049;SDS011;57391;51.306;22.680;2023-02-03T05:02:36;5.80;;;2.50;;
70049;SDS011;57391;51.306;22.680;2023-02-03T05:05:04;7.40;;;3.00;;
70049;SDS011;57391;51.306;22.680;2023-02-03T05:07:31;7.80;;;3.20;;
70049;SDS011;57391;51.306;22.680;2023-02-03T05:09:58;6.10;;;3.00;;
70049;SDS011;57391;51.306;22.680;2023-02-03T05:12:25;5.40;;;2.80;;
70049;SDS011;57391;51.306;22.680;2023-02-03T05:14:52;5.10;;;2.90;;
70049;SDS011;57391;51.306;22.680;2023-02-03T05:17:19;5.60;;;2.80;;
70049;SDS011;57391;51.306;22.680;2023-02-03T05:19:46;6.80;;;3.20;;
70049;SDS011;57391;51.306;22.680;2023-02-03T05:22:13;5.70;;;2.80;;
70049;SDS011;57391;51.306;22.680;2023-02-03T05:24:40;6.60;;;2.90;;
70049;SDS011;57391;51.306;22.680;2023-02-03T05:27:07;4.70;;;2.50;;
70049;SDS011;57391;51.306;22.680;2023-02-03T05:29:34;5.20;;;2.60;;
70049;SDS011;57391;51.306;22.680;2023-02-03T05:32:01;5.60;;;2.90;;
70049;SDS011;57391;51.306;22.680;2023-02-03T05:34:29;6.20;;;2.60;;
70049;SDS011;57391;51.306;22.680;2023-02-03T05:36:56;4.90;;;2.50;;
70049;SDS011;57391;51.306;22.680;2023-02-03T05:39:23;6.60;;;2.60;;
70049;SDS011;57391;51.306;22.680;2023-02-03T05:41:50;5.00;;;2.30;;
70049;SDS011;57391;51.306;22.680;2023-02-03T05:44:22;6.40;;;2.80;;
70049;SDS011;57391;51.306;22.680;2023-02-03T05:46:55;5.20;;;2.40;;
70049;SDS011;57391;51.306;22.680;2023-02-03T05:49:24;6.50;;;2.60;;
70049;SDS011;57391;51.306;22.680;2023-02-03T05:51:52;6.00;;;2.50;;
70049;SDS011;57391;51.306;22.680;2023-02-03T05:54:21;5.70;;;2.30;;
70049;SDS011;57391;51.306;22.680;2023-02-03T05:56:48;5.80;;;2.80;;
70049;SDS011;57391;51.306;22.680;2023-02-03T05:59:16;5.50;;;2.60;;
70049;SDS011;57391;51.306;22.680;2023-02-03T06:01:43;5.70;;;2.60;;
70049;SDS011;57391;51.306;22.680;2023-02-03T06:04:10;6.80;;;2.60;;
70049;SDS011;57391;51.306;22.680;2023-02-03T06:06:37;4.70;;;2.40;;
70049;SDS011;57391;51.306;22.680;2023-02-03T06:09:06;6.20;;;2.40;;
70049;SDS011;57391;51.306;22.680;2023-02-03T06:11:35;5.00;;;2.40;;
70049;SDS011;57391;51.306;22.680;2023-02-03T06:14:03;8.20;;;2.80;;
70049;SDS011;57391;51.306;22.680;2023-02-03T06:16:30;5.40;;;2.50;;
70049;SDS011;57391;51.306;22.680;2023-02-03T06:18:57;4.90;;;2.50;;
70049;SDS011;57391;51.306;22.680;2023-02-03T06:21:25;5.40;;;2.30;;
70049;SDS011;57391;51.306;22.680;2023-02-03T06:23:52;7.60;;;2.80;;
70049;SDS011;57391;51.306;22.680;2023-02-03T06:26:21;4.80;;;2.20;;
70049;SDS011;57391;51.306;22.680;2023-02-03T06:28:48;5.90;;;2.80;;
70049;SDS011;57391;51.306;22.680;2023-02-03T06:31:15;6.80;;;3.30;;
70049;SDS011;57391;51.306;22.680;2023-02-03T06:33:42;6.70;;;2.90;;
70049;SDS011;57391;51.306;22.680;2023-02-03T06:36:09;6.70;;;3.10;;
70049;SDS011;57391;51.306;22.680;2023-02-03T06:38:36;8.90;;;3.60;;
70049;SDS011;57391;51.306;22.680;2023-02-03T06:41:03;8.40;;;3.40;;
70049;SDS011;57391;51.306;22.680;2023-02-03T06:43:30;9.60;;;3.80;;
70049;SDS011;57391;51.306;22.680;2023-02-03T06:45:57;7.80;;;4.10;;
70049;SDS011;57391;51.306;22.680;2023-02-03T06:48:25;10.60;;;4.50;;
70049;SDS011;57391;51.306;22.680;2023-02-03T06:50:52;8.80;;;4.40;;
70049;SDS011;57391;51.306;22.680;2023-02-03T06:53:19;9.20;;;5.00;;
70049;SDS011;57391;51.306;22.680;2023-02-03T06:55:46;13.40;;;5.50;;
70049;SDS011;57391;51.306;22.680;2023-02-03T06:58:13;8.10;;;4.20;;
70049;SDS011;57391;51.306;22.680;2023-02-03T07:00:41;10.10;;;4.40;;
70049;SDS011;57391;51.306;22.680;2023-02-03T07:03:09;9.40;;;4.30;;
70049;SDS011;57391;51.306;22.680;2023-02-03T07:05:36;7.80;;;3.50;;
70049;SDS011;57391;51.306;22.680;2023-02-03T07:08:03;8.10;;;3.80;;
70049;SDS011;57391;51.306;22.680;2023-02-03T07:10:31;8.80;;;4.00;;
70049;SDS011;57391;51.306;22.680;2023-02-03T07:13:05;9.20;;;3.90;;
70049;SDS011;57391;51.306;22.680;2023-02-03T07:15:32;10.30;;;4.60;;
70049;SDS011;57391;51.306;22.680;2023-02-03T07:18:01;9.80;;;4.20;;
70049;SDS011;57391;51.306;22.680;2023-02-03T07:20:28;9.60;;;4.10;;
70049;SDS011;57391;51.306;22.680;2023-02-03T07:22:56;8.40;;;3.30;;
70049;SDS011;57391;51.306;22.680;2023-02-03T07:25:24;9.50;;;3.70;;
70049;SDS011;57391;51.306;22.680;2023-02-03T07:27:52;10.50;;;4.70;;
70049;SDS011;57391;51.306;22.680;2023-02-03T07:30:19;9.00;;;3.40;;
70049;SDS011;57391;51.306;22.680;2023-02-03T07:32:48;7.50;;;3.40;;
70049;SDS011;57391;51.306;22.680;2023-02-03T07:35:16;9.20;;;3.70;;
70049;SDS011;57391;51.306;22.680;2023-02-03T07:37:44;7.40;;;2.90;;
70049;SDS011;57391;51.306;22.680;2023-02-03T07:40:12;6.80;;;2.60;;
70049;SDS011;57391;51.306;22.680;2023-02-03T07:42:46;7.80;;;2.90;;
70049;SDS011;57391;51.306;22.680;2023-02-03T07:45:15;5.50;;;2.30;;
70049;SDS011;57391;51.306;22.680;2023-02-03T07:47:43;7.10;;;2.30;;
70049;SDS011;57391;51.306;22.680;2023-02-03T07:50:11;5.50;;;2.20;;
70049;SDS011;57391;51.306;22.680;2023-02-03T07:52:38;6.90;;;2.50;;
70049;SDS011;57391;51.306;22.680;2023-02-03T07:55:05;6.30;;;2.40;;
70049;SDS011;57391;51.306;22.680;2023-02-03T07:57:33;5.10;;;1.90;;
70049;SDS011;57391;51.306;22.680;2023-02-03T08:00:01;6.60;;;2.40;;
70049;SDS011;57391;51.306;22.680;2023-02-03T08:02:39;5.40;;;2.20;;
70049;SDS011;57391;51.306;22.680;2023-02-03T08:05:09;7.60;;;2.60;;
70049;SDS011;57391;51.306;22.680;2023-02-03T08:07:38;5.30;;;2.10;;
70049;SDS011;57391;51.306;22.680;2023-02-03T08:10:07;5.90;;;2.20;;
70049;SDS011;57391;51.306;22.680;2023-02-03T08:12:35;6.70;;;1.90;;
70049;SDS011;57391;51.306;22.680;2023-02-03T08:15:02;5.00;;;2.00;;
70049;SDS011;57391;51.306;22.680;2023-02-03T08:17:30;4.30;;;1.60;;
70049;SDS011;57391;51.306;22.680;2023-02-03T08:19:59;4.60;;;1.90;;
70049;SDS011;57391;51.306;22.680;2023-02-03T08:22:26;7.30;;;2.10;;
70049;SDS011;57391;51.306;22.680;2023-02-03T08:24:53;7.30;;;2.00;;
70049;SDS011;57391;51.306;22.680;2023-02-03T08:27:21;7.20;;;2.20;;
70049;SDS011;57391;51.306;22.680;2023-02-03T08:29:50;6.60;;;2.20;;
70049;SDS011;57391;51.306;22.680;2023-02-03T08:32:19;6.90;;;2.10;;
70049;SDS011;57391;51.306;22.680;2023-02-03T08:34:48;3.50;;;1.70;;
70049;SDS011;57391;51.306;22.680;2023-02-03T08:37:19;3.40;;;1.30;;
70049;SDS011;57391;51.306;22.680;2023-02-03T08:39:50;5.60;;;1.70;;
70049;SDS011;57391;51.306;22.680;2023-02-03T08:42:19;4.40;;;1.50;;
70049;SDS011;57391;51.306;22.680;2023-02-03T08:44:46;5.10;;;1.70;;
70049;SDS011;57391;51.306;22.680;2023-02-03T08:47:15;5.30;;;1.50;;
70049;SDS011;57391;51.306;22.680;2023-02-03T08:49:42;5.10;;;1.40;;
70049;SDS011;57391;51.306;22.680;2023-02-03T08:52:11;3.30;;;1.10;;
70049;SDS011;57391;51.306;22.680;2023-02-03T08:54:39;3.70;;;1.40;;
70049;SDS011;57391;51.306;22.680;2023-02-03T08:57:07;2.70;;;1.00;;
70049;SDS011;57391;51.306;22.680;2023-02-03T08:59:36;3.50;;;1.20;;
70049;SDS011;57391;51.306;22.680;2023-02-03T09:02:10;1.80;;;0.80;;
70049;SDS011;57391;51.306;22.680;2023-02-03T09:04:40;3.60;;;1.10;;
70049;SDS011;57391;51.306;22.680;2023-02-03T09:07:07;2.80;;;1.00;;
70049;SDS011;57391;51.306;22.680;2023-02-03T09:09:34;1.70;;;0.60;;
70049;SDS011;57391;51.306;22.680;2023-02-03T09:12:01;3.00;;;0.70;;
70049;SDS011;57391;51.306;22.680;2023-02-03T09:14:31;2.20;;;0.90;;
70049;SDS011;57391;51.306;22.680;2023-02-03T09:17:01;2.30;;;0.70;;
70049;SDS011;57391;51.306;22.680;2023-02-03T09:19:29;2.40;;;1.00;;
70049;SDS011;57391;51.306;22.680;2023-02-03T09:21:57;2.40;;;1.10;;
70049;SDS011;57391;51.306;22.680;2023-02-03T09:24:24;2.00;;;0.80;;
70049;SDS011;57391;51.306;22.680;2023-02-03T09:26:52;1.40;;;0.60;;
70049;SDS011;57391;51.306;22.680;2023-02-03T09:29:19;2.00;;;0.90;;
70049;SDS011;57391;51.306;22.680;2023-02-03T09:31:48;2.70;;;1.20;;
70049;SDS011;57391;51.306;22.680;2023-02-03T09:34:19;4.00;;;1.30;;
70049;SDS011;57391;51.306;22.680;2023-02-03T09:36:46;4.20;;;1.30;;
70049;SDS011;57391;51.306;22.680;2023-02-03T09:39:14;2.20;;;1.00;;
70049;SDS011;57391;51.306;22.680;2023-02-03T09:47:31;3.30;;;1.00;;
70049;SDS011;57391;51.306;22.680;2023-02-03T09:50:06;3.70;;;1.00;;
70049;SDS011;57391;51.306;22.680;2023-02-03T09:52:40;2.40;;;1.00;;
70049;SDS011;57391;51.306;22.680;2023-02-03T09:58:17;2.30;;;0.90;;
70049;SDS011;57391;51.306;22.680;2023-02-03T10:00:54;3.10;;;1.30;;
70049;SDS011;57391;51.306;22.680;2023-02-03T10:03:47;5.20;;;1.20;;
70049;SDS011;57391;51.306;22.680;2023-02-03T10:06:36;5.00;;;1.90;;
70049;SDS011;57391;51.306;22.680;2023-02-03T10:15:33;3.50;;;1.40;;
70049;SDS011;57391;51.306;22.680;2023-02-03T10:18:18;4.90;;;1.50;;
70049;SDS011;57391;51.306;22.680;2023-02-03T10:20:53;2.80;;;1.20;;
70049;SDS011;57391;51.306;22.680;2023-02-03T10:23:39;3.30;;;1.30;;
70049;SDS011;57391;51.306;22.680;2023-02-03T10:26:11;4.40;;;1.10;;
70049;SDS011;57391;51.306;22.680;2023-02-03T10:31:46;3.90;;;1.20;;
70049;SDS011;57391;51.306;22.680;2023-02-03T10:34:15;8.50;;;3.00;;
70049;SDS011;57391;51.306;22.680;2023-02-03T10:36:52;7.50;;;2.50;;
70049;SDS011;57391;51.306;22.680;2023-02-03T10:39:27;6.70;;;1.80;;
70049;SDS011;57391;51.306;22.680;2023-02-03T10:42:00;6.20;;;1.90;;
70049;SDS011;57391;51.306;22.680;2023-02-03T10:44:44;3.80;;;1.60;;
70049;SDS011;57391;51.306;22.680;2023-02-03T10:50:25;2.60;;;1.10;;
70049;SDS011;57391;51.306;22.680;2023-02-03T10:56:00;3.50;;;1.10;;
70049;SDS011;57391;51.306;22.680;2023-02-03T10:58:31;5.50;;;2.10;;
70049;SDS011;57391;51.306;22.680;2023-02-03T11:01:15;2.80;;;1.30;;
70049;SDS011;57391;51.306;22.680;2023-02-03T11:04:00;4.10;;;1.30;;
70049;SDS011;57391;51.306;22.680;2023-02-03T11:06:32;4.00;;;1.20;;
70049;SDS011;57391;51.306;22.680;2023-02-03T11:08:59;4.30;;;1.40;;
70049;SDS011;57391;51.306;22.680;2023-02-03T11:11:29;3.70;;;1.30;;
70049;SDS011;57391;51.306;22.680;2023-02-03T11:16:31;3.30;;;1.40;;
70049;SDS011;57391;51.306;22.680;2023-02-03T11:24:23;3.60;;;1.60;;
70049;SDS011;57391;51.306;22.680;2023-02-03T11:26:57;3.10;;;1.40;;
70049;SDS011;57391;51.306;22.680;2023-02-03T11:29:34;3.90;;;1.60;;
70049;SDS011;57391;51.306;22.680;2023-02-03T11:32:22;3.80;;;1.60;;
70049;SDS011;57391;51.306;22.680;2023-02-03T11:35:01;3.60;;;1.60;;
70049;SDS011;57391;51.306;22.680;2023-02-03T11:37:44;5.20;;;2.20;;
70049;SDS011;57391;51.306;22.680;2023-02-03T11:48:13;6.10;;;2.00;;
70049;SDS011;57391;51.306;22.680;2023-02-03T11:56:24;3.90;;;1.50;;
70049;SDS011;57391;51.306;22.680;2023-02-03T12:08:12;7.30;;;2.10;;
70049;SDS011;57391;51.306;22.680;2023-02-03T12:13:56;6.10;;;2.40;;
70049;SDS011;57391;51.306;22.680;2023-02-03T12:19:44;9.00;;;2.70;;
70049;SDS011;57391;51.306;22.680;2023-02-03T12:25:24;5.60;;;1.80;;
70049;SDS011;57391;51.306;22.680;2023-02-03T12:28:33;5.10;;;1.80;;
70049;SDS011;57391;51.306;22.680;2023-02-03T12:37:12;6.10;;;2.00;;
70049;SDS011;57391;51.306;22.680;2023-02-03T12:39:45;6.80;;;2.10;;
70049;SDS011;57391;51.306;22.680;2023-02-03T12:42:20;5.20;;;1.80;;
70049;SDS011;57391;51.306;22.680;2023-02-03T12:44:57;6.20;;;2.10;;
70049;SDS011;57391;51.306;22.680;2023-02-03T12:47:55;6.00;;;2.10;;
70049;SDS011;57391;51.306;22.680;2023-02-03T12:50:47;7.00;;;2.50;;
70049;SDS011;57391;51.306;22.680;2023-02-03T12:53:30;5.10;;;1.80;;
70049;SDS011;57391;51.306;22.680;2023-02-03T12:56:08;8.80;;;3.40;;
70049;SDS011;57391;51.306;22.680;2023-02-03T12:58:49;8.70;;;3.00;;
70049;SDS011;57391;51.306;22.680;2023-02-03T13:01:30;9.50;;;3.20;;
70049;SDS011;57391;51.306;22.680;2023-02-03T13:04:14;8.00;;;2.90;;
70049;SDS011;57391;51.306;22.680;2023-02-03T13:07:02;7.80;;;3.10;;
70049;SDS011;57391;51.306;22.680;2023-02-03T13:09:50;7.70;;;3.20;;
70049;SDS011;57391;51.306;22.680;2023-02-03T13:12:28;7.90;;;2.60;;
70049;SDS011;57391;51.306;22.680;2023-02-03T13:15:39;7.00;;;3.30;;
70049;SDS011;57391;51.306;22.680;2023-02-03T13:18:33;6.60;;;3.20;;
70049;SDS011;57391;51.306;22.680;2023-02-03T13:21:02;8.90;;;3.40;;
70049;SDS011;57391;51.306;22.680;2023-02-03T13:23:30;6.20;;;2.30;;
70049;SDS011;57391;51.306;22.680;2023-02-03T13:28:53;8.70;;;3.20;;
70049;SDS011;57391;51.306;22.680;2023-02-03T13:37:22;9.60;;;3.10;;
70049;SDS011;57391;51.306;22.680;2023-02-03T13:43:05;6.40;;;2.30;;
70049;SDS011;57391;51.306;22.680;2023-02-03T13:45:43;6.50;;;2.70;;
70049;SDS011;57391;51.306;22.680;2023-02-03T13:48:23;8.40;;;3.00;;
70049;SDS011;57391;51.306;22.680;2023-02-03T13:51:12;8.70;;;3.60;;
70049;SDS011;57391;51.306;22.680;2023-02-03T13:53:43;10.00;;;3.80;;
70049;SDS011;57391;51.306;22.680;2023-02-03T13:56:23;10.50;;;3.80;;
70049;SDS011;57391;51.306;22.680;2023-02-03T14:01:42;16.90;;;7.20;;
70049;SDS011;57391;51.306;22.680;2023-02-03T14:07:02;8.60;;;3.50;;
70049;SDS011;57391;51.306;22.680;2023-02-03T14:14:58;12.60;;;4.10;;
70049;SDS011;57391;51.306;22.680;2023-02-03T14:20:02;9.00;;;3.80;;
70049;SDS011;57391;51.306;22.680;2023-02-03T14:22:32;8.00;;;3.00;;
70049;SDS011;57391;51.306;22.680;2023-02-03T14:25:04;12.90;;;3.90;;
70049;SDS011;57391;51.306;22.680;2023-02-03T14:27:34;9.90;;;3.70;;
70049;SDS011;57391;51.306;22.680;2023-02-03T14:30:12;11.40;;;4.80;;
70049;SDS011;57391;51.306;22.680;2023-02-03T14:32:50;13.40;;;5.10;;
70049;SDS011;57391;51.306;22.680;2023-02-03T14:35:28;13.90;;;5.90;;
70049;SDS011;57391;51.306;22.680;2023-02-03T14:38:01;14.80;;;5.90;;
70049;SDS011;57391;51.306;22.680;2023-02-03T14:44:00;12.20;;;3.70;;
70049;SDS011;57391;51.306;22.680;2023-02-03T14:52:22;15.10;;;4.90;;
70049;SDS011;57391;51.306;22.680;2023-02-03T14:58:03;12.10;;;4.50;;
70049;SDS011;57391;51.306;22.680;2023-02-03T15:00:39;12.50;;;5.30;;
70049;SDS011;57391;51.306;22.680;2023-02-03T15:05:47;11.60;;;4.90;;
70049;SDS011;57391;51.306;22.680;2023-02-03T15:08:40;11.70;;;4.20;;
70049;SDS011;57391;51.306;22.680;2023-02-03T15:11:31;12.00;;;3.90;;
70049;SDS011;57391;51.306;22.680;2023-02-03T15:14:27;10.50;;;3.60;;
70049;SDS011;57391;51.306;22.680;2023-02-03T15:17:00;10.00;;;3.00;;
70049;SDS011;57391;51.306;22.680;2023-02-03T15:19:36;10.40;;;3.90;;
70049;SDS011;57391;51.306;22.680;2023-02-03T15:22:25;10.10;;;3.70;;
70049;SDS011;57391;51.306;22.680;2023-02-03T15:24:59;11.30;;;4.00;;
70049;SDS011;57391;51.306;22.680;2023-02-03T15:27:31;14.80;;;4.40;;
70049;SDS011;57391;51.306;22.680;2023-02-03T15:30:25;12.30;;;3.90;;
70049;SDS011;57391;51.306;22.680;2023-02-03T15:33:02;10.80;;;3.40;;
70049;SDS011;57391;51.306;22.680;2023-02-03T15:35:35;11.40;;;4.80;;
70049;SDS011;57391;51.306;22.680;2023-02-03T15:38:11;12.70;;;4.20;;
70049;SDS011;57391;51.306;22.680;2023-02-03T15:40:47;11.50;;;3.60;;
70049;SDS011;57391;51.306;22.680;2023-02-03T15:46:03;8.00;;;3.20;;
70049;SDS011;57391;51.306;22.680;2023-02-03T15:51:30;10.40;;;3.80;;
70049;SDS011;57391;51.306;22.680;2023-02-03T15:54:34;8.90;;;3.40;;
70049;SDS011;57391;51.306;22.680;2023-02-03T15:57:09;9.60;;;3.10;;
70049;SDS011;57391;51.306;22.680;2023-02-03T15:59:59;12.50;;;3.20;;
70049;SDS011;57391;51.306;22.680;2023-02-03T16:02:43;9.50;;;3.90;;
70049;SDS011;57391;51.306;22.680;2023-02-03T16:05:25;9.80;;;3.70;;
70049;SDS011;57391;51.306;22.680;2023-02-03T16:07:55;7.90;;;3.90;;
70049;SDS011;57391;51.306;22.680;2023-02-03T16:10:33;7.70;;;3.40;;
70049;SDS011;57391;51.306;22.680;2023-02-03T16:13:21;12.00;;;5.20;;
70049;SDS011;57391;51.306;22.680;2023-02-03T16:16:02;10.90;;;4.10;;
70049;SDS011;57391;51.306;22.680;2023-02-03T16:18:34;7.40;;;2.60;;
70049;SDS011;57391;51.306;22.680;2023-02-03T16:21:04;9.10;;;3.90;;
70049;SDS011;57391;51.306;22.680;2023-02-03T16:23:31;9.60;;;3.70;;
70049;SDS011;57391;51.306;22.680;2023-02-03T16:28:33;11.40;;;4.30;;
70049;SDS011;57391;51.306;22.680;2023-02-03T16:31:20;15.70;;;6.40;;
70049;SDS011;57391;51.306;22.680;2023-02-03T16:37:33;16.80;;;6.60;;
70049;SDS011;57391;51.306;22.680;2023-02-03T16:40:27;16.00;;;5.70;;
70049;SDS011;57391;51.306;22.680;2023-02-03T16:43:15;14.20;;;5.50;;
70049;SDS011;57391;51.306;22.680;2023-02-03T16:46:01;15.10;;;6.00;;
70049;SDS011;57391;51.306;22.680;2023-02-03T16:48:46;13.20;;;5.20;;
70049;SDS011;57391;51.306;22.680;2023-02-03T16:51:37;15.60;;;5.70;;
70049;SDS011;57391;51.306;22.680;2023-02-03T16:54:09;11.60;;;4.50;;
70049;SDS011;57391;51.306;22.680;2023-02-03T16:56:41;10.90;;;5.20;;
70049;SDS011;57391;51.306;22.680;2023-02-03T16:59:08;13.20;;;5.60;;
70049;SDS011;57391;51.306;22.680;2023-02-03T17:01:36;11.10;;;4.90;;
70049;SDS011;57391;51.306;22.680;2023-02-03T17:04:03;12.20;;;5.20;;
70049;SDS011;57391;51.306;22.680;2023-02-03T17:06:30;11.70;;;5.00;;
70049;SDS011;57391;51.306;22.680;2023-02-03T17:08:59;14.80;;;5.40;;
70049;SDS011;57391;51.306;22.680;2023-02-03T17:11:26;10.70;;;5.00;;
70049;SDS011;57391;51.306;22.680;2023-02-03T17:13:53;11.50;;;4.70;;
70049;SDS011;57391;51.306;22.680;2023-02-03T17:16:23;13.20;;;5.10;;
70049;SDS011;57391;51.306;22.680;2023-02-03T17:18:53;12.60;;;5.60;;
70049;SDS011;57391;51.306;22.680;2023-02-03T17:21:26;16.90;;;6.20;;
70049;SDS011;57391;51.306;22.680;2023-02-03T17:23:54;12.70;;;6.00;;
70049;SDS011;57391;51.306;22.680;2023-02-03T17:26:22;18.60;;;7.70;;
70049;SDS011;57391;51.306;22.680;2023-02-03T17:28:49;22.70;;;8.10;;
70049;SDS011;57391;51.306;22.680;2023-02-03T17:31:18;26.80;;;9.60;;
70049;SDS011;57391;51.306;22.680;2023-02-03T17:33:50;22.30;;;8.00;;
70049;SDS011;57391;51.306;22.680;2023-02-03T17:36:18;41.50;;;11.30;;
70049;SDS011;57391;51.306;22.680;2023-02-03T17:38:53;39.00;;;11.90;;
70049;SDS011;57391;51.306;22.680;2023-02-03T17:41:23;31.00;;;9.50;;
70049;SDS011;57391;51.306;22.680;2023-02-03T17:43:51;22.60;;;7.90;;
70049;SDS011;57391;51.306;22.680;2023-02-03T17:46:21;49.00;;;13.80;;
70049;SDS011;57391;51.306;22.680;2023-02-03T17:48:50;39.20;;;12.10;;
70049;SDS011;57391;51.306;22.680;2023-02-03T17:51:20;28.20;;;9.50;;
70049;SDS011;57391;51.306;22.680;2023-02-03T17:53:52;20.80;;;8.10;;
70049;SDS011;57391;51.306;22.680;2023-02-03T17:56:23;14.80;;;6.20;;
70049;SDS011;57391;51.306;22.680;2023-02-03T17:58:59;52.40;;;16.60;;